sensor_id;sensor_type;location;lat;lon;timestamp;pressure;altitude;pressure_sealevel;temperature;humidity
34566;BME280;20803;42.676;26.348;2022-09-09T00:04:29;98937.09;;;17.70;91.53
34566;BME280;20803;42.676;26.348;2022-09-09T00:09:47;98937.59;;;17.56;92.92
34566;BME280;20803;42.676;26.348;2022-09-09T00:12:27;98945.69;;;17.54;93.52
34566;BME280;20803;42.676;26.348;2022-09-09T00:15:13;98948.16;;;17.52;93.57
34566;BME280;20803;42.676;26.348;2022-09-09T00:17:43;98949.94;;;17.59;93.50
34566;BME280;20803;42.676;26.348;2022-09-09T00:20:19;98951.28;;;17.67;93.15
34566;BME280;20803;42.676;26.348;2022-09-09T00:28:22;98959.06;;;17.50;92.98
34566;BME280;20803;42.676;26.348;2022-09-09T00:30:48;98959.31;;;17.43;93.68
34566;BME280;20803;42.676;26.348;2022-09-09T00:33:16;98955.81;;;17.39;94.12
34566;BME280;20803;42.676;26.348;2022-09-09T00:35:52;98944.06;;;17.31;94.70
34566;BME280;20803;42.676;26.348;2022-09-09T00:38:35;98948.31;;;17.23;95.75
34566;BME280;20803;42.676;26.348;2022-09-09T00:43:40;98942.47;;;17.30;94.36
34566;BME280;20803;42.676;26.348;2022-09-09T00:57:23;98937.25;;;17.54;92.65
34566;BME280;20803;42.676;26.348;2022-09-09T00:59:52;98937.13;;;17.58;91.44
34566;BME280;20803;42.676;26.348;2022-09-09T01:04:50;98949.09;;;17.36;92.77
34566;BME280;20803;42.676;26.348;2022-09-09T01:07:17;98948.66;;;17.25;93.73
34566;BME280;20803;42.676;26.348;2022-09-09T01:09:57;98943.59;;;17.20;93.40
34566;BME280;20803;42.676;26.348;2022-09-09T01:15:07;98952.81;;;17.08;94.57
34566;BME280;20803;42.676;26.348;2022-09-09T01:20:27;98955.66;;;16.95;96.78
34566;BME280;20803;42.676;26.348;2022-09-09T01:23:15;98949.69;;;16.93;97.47
34566;BME280;20803;42.676;26.348;2022-09-09T01:26:05;98944.19;;;16.90;97.28
34566;BME280;20803;42.676;26.348;2022-09-09T01:28:34;98938.91;;;16.92;98.29
34566;BME280;20803;42.676;26.348;2022-09-09T01:31:03;98942.38;;;16.96;97.32
34566;BME280;20803;42.676;26.348;2022-09-09T01:33:29;98939.56;;;16.96;97.20
34566;BME280;20803;42.676;26.348;2022-09-09T01:36:08;98931.50;;;16.98;96.26
34566;BME280;20803;42.676;26.348;2022-09-09T01:38:36;98933.75;;;17.03;95.45
34566;BME280;20803;42.676;26.348;2022-09-09T01:41:02;98936.00;;;16.95;96.65
34566;BME280;20803;42.676;26.348;2022-09-09T01:43:29;98935.44;;;16.88;97.07
34566;BME280;20803;42.676;26.348;2022-09-09T01:45:56;98932.19;;;16.77;98.52
34566;BME280;20803;42.676;26.348;2022-09-09T01:48:24;98941.06;;;16.75;99.06
34566;BME280;20803;42.676;26.348;2022-09-09T01:50:50;98937.81;;;16.77;99.05
34566;BME280;20803;42.676;26.348;2022-09-09T01:53:17;98935.44;;;16.75;98.85
34566;BME280;20803;42.676;26.348;2022-09-09T02:01:50;98924.53;;;16.77;98.60
34566;BME280;20803;42.676;26.348;2022-09-09T02:07:01;98933.53;;;16.72;98.10
34566;BME280;20803;42.676;26.348;2022-09-09T02:09:29;98926.31;;;16.71;98.00
34566;BME280;20803;42.676;26.348;2022-09-09T02:12:08;98922.50;;;16.78;97.90
34566;BME280;20803;42.676;26.348;2022-09-09T02:14:39;98925.53;;;16.83;97.67
34566;BME280;20803;42.676;26.348;2022-09-09T02:17:09;98935.09;;;16.73;98.19
34566;BME280;20803;42.676;26.348;2022-09-09T02:19:49;98927.91;;;16.72;98.01
34566;BME280;20803;42.676;26.348;2022-09-09T02:22:21;98927.03;;;16.75;97.47
34566;BME280;20803;42.676;26.348;2022-09-09T02:24:47;98927.59;;;16.70;98.14
34566;BME280;20803;42.676;26.348;2022-09-09T02:27:16;98933.50;;;16.59;98.54
34566;BME280;20803;42.676;26.348;2022-09-09T02:29:43;98933.72;;;16.52;98.74
34566;BME280;20803;42.676;26.348;2022-09-09T02:32:15;98934.94;;;16.51;99.37
34566;BME280;20803;42.676;26.348;2022-09-09T02:34:48;98930.34;;;16.45;99.75
34566;BME280;20803;42.676;26.348;2022-09-09T02:37:18;98927.41;;;16.48;99.08
34566;BME280;20803;42.676;26.348;2022-09-09T02:39:44;98939.78;;;16.51;98.69
34566;BME280;20803;42.676;26.348;2022-09-09T02:42:09;98932.47;;;16.53;98.45
34566;BME280;20803;42.676;26.348;2022-09-09T02:44:35;98928.09;;;16.52;98.07
34566;BME280;20803;42.676;26.348;2022-09-09T02:52:18;98919.78;;;16.49;97.88
34566;BME280;20803;42.676;26.348;2022-09-09T02:54:50;98920.69;;;16.46;98.34
34566;BME280;20803;42.676;26.348;2022-09-09T02:57:26;98916.19;;;16.48;98.30
34566;BME280;20803;42.676;26.348;2022-09-09T02:59:53;98922.28;;;16.59;97.25
34566;BME280;20803;42.676;26.348;2022-09-09T03:02:22;98917.59;;;16.69;96.81
34566;BME280;20803;42.676;26.348;2022-09-09T03:04:47;98924.00;;;16.70;96.35
34566;BME280;20803;42.676;26.348;2022-09-09T03:07:17;98923.78;;;16.64;96.98
34566;BME280;20803;42.676;26.348;2022-09-09T03:09:43;98920.34;;;16.56;97.26
34566;BME280;20803;42.676;26.348;2022-09-09T03:12:08;98922.19;;;16.63;96.68
34566;BME280;20803;42.676;26.348;2022-09-09T03:14:36;98922.84;;;16.67;96.09
34566;BME280;20803;42.676;26.348;2022-09-09T03:17:04;98924.78;;;16.70;96.20
34566;BME280;20803;42.676;26.348;2022-09-09T03:19:29;98920.41;;;16.69;96.26
34566;BME280;20803;42.676;26.348;2022-09-09T03:21:55;98933.94;;;16.58;96.09
34566;BME280;20803;42.676;26.348;2022-09-09T03:24:20;98934.03;;;16.42;97.24
34566;BME280;20803;42.676;26.348;2022-09-09T03:26:48;98930.75;;;16.31;98.72
34566;BME280;20803;42.676;26.348;2022-09-09T03:29:15;98932.88;;;16.27;99.02
34566;BME280;20803;42.676;26.348;2022-09-09T03:31:42;98933.75;;;16.23;99.86
34566;BME280;20803;42.676;26.348;2022-09-09T03:34:08;98929.84;;;16.21;100.00
34566;BME280;20803;42.676;26.348;2022-09-09T03:36:36;98936.31;;;16.18;100.00
34566;BME280;20803;42.676;26.348;2022-09-09T03:39:02;98933.22;;;16.16;100.00
34566;BME280;20803;42.676;26.348;2022-09-09T03:41:28;98936.44;;;16.14;100.00
34566;BME280;20803;42.676;26.348;2022-09-09T03:43:54;98929.50;;;16.19;100.00
34566;BME280;20803;42.676;26.348;2022-09-09T03:46:21;98930.53;;;16.25;100.00
34566;BME280;20803;42.676;26.348;2022-09-09T03:48:47;98940.75;;;16.32;99.92
34566;BME280;20803;42.676;26.348;2022-09-09T03:51:12;98941.41;;;16.36;99.55
34566;BME280;20803;42.676;26.348;2022-09-09T03:53:38;98934.59;;;16.49;98.82
34566;BME280;20803;42.676;26.348;2022-09-09T03:56:04;98930.44;;;16.54;98.60
34566;BME280;20803;42.676;26.348;2022-09-09T03:58:33;98930.16;;;16.65;97.86
34566;BME280;20803;42.676;26.348;2022-09-09T04:01:04;98934.22;;;16.76;96.29
34566;BME280;20803;42.676;26.348;2022-09-09T04:03:31;98932.50;;;16.91;94.95
34566;BME280;20803;42.676;26.348;2022-09-09T04:05:58;98932.41;;;17.08;92.70
34566;BME280;20803;42.676;26.348;2022-09-09T04:08:24;98931.84;;;17.13;91.29
34566;BME280;20803;42.676;26.348;2022-09-09T04:10:53;98937.16;;;17.45;89.25
34566;BME280;20803;42.676;26.348;2022-09-09T04:13:19;98928.91;;;17.63;86.34
34566;BME280;20803;42.676;26.348;2022-09-09T04:15:51;98932.06;;;17.65;85.38
34566;BME280;20803;42.676;26.348;2022-09-09T04:18:17;98937.44;;;17.72;84.43
34566;BME280;20803;42.676;26.348;2022-09-09T04:20:42;98940.66;;;17.83;82.97
34566;BME280;20803;42.676;26.348;2022-09-09T04:23:08;98931.59;;;18.23;80.08
34566;BME280;20803;42.676;26.348;2022-09-09T04:25:34;98927.47;;;18.68;76.57
34566;BME280;20803;42.676;26.348;2022-09-09T04:27:59;98926.56;;;18.71;76.19
34566;BME280;20803;42.676;26.348;2022-09-09T04:30:25;98933.41;;;19.10;73.18
34566;BME280;20803;42.676;26.348;2022-09-09T04:32:52;98938.41;;;19.55;69.52
34566;BME280;20803;42.676;26.348;2022-09-09T04:35:17;98930.16;;;19.88;67.30
34566;BME280;20803;42.676;26.348;2022-09-09T04:37:45;98939.69;;;20.08;65.46
34566;BME280;20803;42.676;26.348;2022-09-09T04:40:10;98942.94;;;20.43;63.10
34566;BME280;20803;42.676;26.348;2022-09-09T04:42:36;98937.97;;;20.80;60.39
34566;BME280;20803;42.676;26.348;2022-09-09T04:45:02;98937.94;;;21.55;57.75
34566;BME280;20803;42.676;26.348;2022-09-09T04:47:28;98931.47;;;22.02;55.48
34566;BME280;20803;42.676;26.348;2022-09-09T04:49:53;98935.13;;;22.47;53.95
34566;BME280;20803;42.676;26.348;2022-09-09T04:52:20;98942.38;;;22.62;52.98
34566;BME280;20803;42.676;26.348;2022-09-09T04:54:46;98939.06;;;23.28;50.98
34566;BME280;20803;42.676;26.348;2022-09-09T04:57:11;98943.25;;;23.33;50.48
34566;BME280;20803;42.676;26.348;2022-09-09T04:59:37;98943.38;;;23.59;49.39
34566;BME280;20803;42.676;26.348;2022-09-09T05:02:03;98943.22;;;23.88;47.89
34566;BME280;20803;42.676;26.348;2022-09-09T05:04:29;98947.50;;;24.44;47.28
34566;BME280;20803;42.676;26.348;2022-09-09T05:06:54;98946.31;;;24.31;46.71
34566;BME280;20803;42.676;26.348;2022-09-09T05:09:20;98944.16;;;24.77;46.31
34566;BME280;20803;42.676;26.348;2022-09-09T05:11:46;98944.28;;;24.88;45.87
34566;BME280;20803;42.676;26.348;2022-09-09T05:14:11;98933.88;;;25.11;45.03
34566;BME280;20803;42.676;26.348;2022-09-09T05:16:37;98939.75;;;25.39;45.33
34566;BME280;20803;42.676;26.348;2022-09-09T05:19:03;98938.41;;;25.71;45.12
34566;BME280;20803;42.676;26.348;2022-09-09T05:21:28;98935.84;;;25.73;44.24
34566;BME280;20803;42.676;26.348;2022-09-09T05:23:56;98937.19;;;25.89;44.29
34566;BME280;20803;42.676;26.348;2022-09-09T05:26:22;98944.00;;;26.14;43.94
34566;BME280;20803;42.676;26.348;2022-09-09T05:28:48;98938.63;;;26.33;43.39
34566;BME280;20803;42.676;26.348;2022-09-09T05:31:15;98935.09;;;25.90;42.95
34566;BME280;20803;42.676;26.348;2022-09-09T05:33:42;98930.59;;;25.61;43.68
34566;BME280;20803;42.676;26.348;2022-09-09T05:36:10;98933.28;;;25.38;44.19
34566;BME280;20803;42.676;26.348;2022-09-09T05:38:38;98934.72;;;26.30;42.91
34566;BME280;20803;42.676;26.348;2022-09-09T05:41:04;98932.44;;;26.45;42.79
34566;BME280;20803;42.676;26.348;2022-09-09T05:43:30;98933.75;;;26.61;42.49
34566;BME280;20803;42.676;26.348;2022-09-09T05:46:05;98931.16;;;26.63;42.37
34566;BME280;20803;42.676;26.348;2022-09-09T05:48:33;98938.72;;;26.88;41.57
34566;BME280;20803;42.676;26.348;2022-09-09T05:50:59;98935.59;;;26.92;41.81
34566;BME280;20803;42.676;26.348;2022-09-09T05:53:26;98941.56;;;26.88;41.58
34566;BME280;20803;42.676;26.348;2022-09-09T05:56:03;98943.84;;;26.79;42.09
34566;BME280;20803;42.676;26.348;2022-09-09T05:58:33;98941.03;;;26.90;41.26
34566;BME280;20803;42.676;26.348;2022-09-09T06:01:03;98945.19;;;27.00;41.00
34566;BME280;20803;42.676;26.348;2022-09-09T06:03:29;98949.78;;;26.42;41.97
34566;BME280;20803;42.676;26.348;2022-09-09T06:06:03;98946.13;;;26.24;43.48
34566;BME280;20803;42.676;26.348;2022-09-09T06:08:33;98942.22;;;26.22;42.62
34566;BME280;20803;42.676;26.348;2022-09-09T06:11:04;98946.41;;;26.38;42.70
34566;BME280;20803;42.676;26.348;2022-09-09T06:13:30;98959.41;;;26.50;42.43
34566;BME280;20803;42.676;26.348;2022-09-09T06:15:56;98951.63;;;25.80;43.84
34566;BME280;20803;42.676;26.348;2022-09-09T06:18:21;98954.91;;;25.62;44.62
34566;BME280;20803;42.676;26.348;2022-09-09T06:21:01;98952.09;;;25.67;44.59
34566;BME280;20803;42.676;26.348;2022-09-09T06:23:29;98945.66;;;25.72;44.32
34566;BME280;20803;42.676;26.348;2022-09-09T06:26:03;98942.69;;;26.04;44.86
34566;BME280;20803;42.676;26.348;2022-09-09T06:28:31;98942.06;;;26.70;43.14
34566;BME280;20803;42.676;26.348;2022-09-09T06:30:58;98948.00;;;26.55;43.27
34566;BME280;20803;42.676;26.348;2022-09-09T06:33:24;98947.97;;;26.39;43.81
34566;BME280;20803;42.676;26.348;2022-09-09T06:35:53;98956.84;;;26.85;43.42
34566;BME280;20803;42.676;26.348;2022-09-09T06:38:19;98960.50;;;26.97;42.71
34566;BME280;20803;42.676;26.348;2022-09-09T06:40:55;98954.50;;;26.67;43.23
34566;BME280;20803;42.676;26.348;2022-09-09T06:43:22;98952.53;;;26.14;43.61
34566;BME280;20803;42.676;26.348;2022-09-09T06:46:08;98967.28;;;26.07;43.99
34566;BME280;20803;42.676;26.348;2022-09-09T06:48:34;98950.94;;;26.02;44.14
34566;BME280;20803;42.676;26.348;2022-09-09T06:51:07;98946.78;;;25.92;44.35
34566;BME280;20803;42.676;26.348;2022-09-09T06:53:34;98947.31;;;25.96;44.63
34566;BME280;20803;42.676;26.348;2022-09-09T06:56:20;98946.03;;;25.97;45.20
34566;BME280;20803;42.676;26.348;2022-09-09T06:58:48;98948.13;;;26.07;44.14
34566;BME280;20803;42.676;26.348;2022-09-09T07:01:23;98955.91;;;26.12;43.69
34566;BME280;20803;42.676;26.348;2022-09-09T07:03:51;98953.63;;;26.22;43.36
34566;BME280;20803;42.676;26.348;2022-09-09T07:06:25;98953.97;;;26.57;43.53
34566;BME280;20803;42.676;26.348;2022-09-09T07:08:53;98950.13;;;27.05;42.74
34566;BME280;20803;42.676;26.348;2022-09-09T07:11:20;98957.34;;;27.28;41.99
34566;BME280;20803;42.676;26.348;2022-09-09T07:13:47;98956.84;;;27.02;42.23
34566;BME280;20803;42.676;26.348;2022-09-09T07:16:15;98962.81;;;26.98;42.47
34566;BME280;20803;42.676;26.348;2022-09-09T07:18:41;98964.88;;;26.81;42.68
34566;BME280;20803;42.676;26.348;2022-09-09T07:21:09;98952.63;;;26.31;44.36
34566;BME280;20803;42.676;26.348;2022-09-09T07:23:35;98956.31;;;26.81;42.32
34566;BME280;20803;42.676;26.348;2022-09-09T07:26:08;98956.59;;;27.17;41.87
34566;BME280;20803;42.676;26.348;2022-09-09T07:28:34;98959.72;;;27.13;42.05
34566;BME280;20803;42.676;26.348;2022-09-09T07:31:00;98953.69;;;26.44;43.28
34566;BME280;20803;42.676;26.348;2022-09-09T07:33:30;98951.34;;;26.59;42.71
34566;BME280;20803;42.676;26.348;2022-09-09T07:36:08;98953.41;;;26.42;43.13
34566;BME280;20803;42.676;26.348;2022-09-09T07:38:42;98957.34;;;26.61;42.50
34566;BME280;20803;42.676;26.348;2022-09-09T07:41:14;98960.22;;;27.23;41.84
34566;BME280;20803;42.676;26.348;2022-09-09T07:43:42;98958.63;;;27.33;40.84
34566;BME280;20803;42.676;26.348;2022-09-09T07:46:09;98966.38;;;27.71;40.88
34566;BME280;20803;42.676;26.348;2022-09-09T07:48:36;98953.91;;;27.63;40.75
34566;BME280;20803;42.676;26.348;2022-09-09T07:51:08;98958.75;;;27.96;40.22
34566;BME280;20803;42.676;26.348;2022-09-09T07:53:35;98949.09;;;28.10;39.64
34566;BME280;20803;42.676;26.348;2022-09-09T07:56:10;98949.09;;;28.16;40.47
34566;BME280;20803;42.676;26.348;2022-09-09T07:58:40;98950.25;;;27.79;40.22
34566;BME280;20803;42.676;26.348;2022-09-09T08:01:11;98954.16;;;27.71;39.84
34566;BME280;20803;42.676;26.348;2022-09-09T08:03:38;98952.41;;;27.57;39.45
34566;BME280;20803;42.676;26.348;2022-09-09T08:06:05;98948.69;;;27.78;39.26
34566;BME280;20803;42.676;26.348;2022-09-09T08:08:32;98936.91;;;28.04;39.24
34566;BME280;20803;42.676;26.348;2022-09-09T08:13:36;98933.66;;;28.30;37.78
34566;BME280;20803;42.676;26.348;2022-09-09T08:16:14;98934.00;;;28.15;38.07
34566;BME280;20803;42.676;26.348;2022-09-09T08:18:41;98934.28;;;28.06;38.09
34566;BME280;20803;42.676;26.348;2022-09-09T08:21:15;98933.19;;;28.20;37.54
34566;BME280;20803;42.676;26.348;2022-09-09T08:23:44;98930.59;;;28.22;38.17
34566;BME280;20803;42.676;26.348;2022-09-09T08:26:21;98931.16;;;28.10;38.17
34566;BME280;20803;42.676;26.348;2022-09-09T08:28:52;98935.63;;;27.94;37.83
34566;BME280;20803;42.676;26.348;2022-09-09T08:31:21;98931.06;;;27.74;39.21
34566;BME280;20803;42.676;26.348;2022-09-09T08:33:47;98932.03;;;27.82;39.83
34566;BME280;20803;42.676;26.348;2022-09-09T08:36:16;98932.44;;;28.14;38.27
34566;BME280;20803;42.676;26.348;2022-09-09T08:38:48;98935.03;;;28.59;37.45
34566;BME280;20803;42.676;26.348;2022-09-09T08:47:33;98920.13;;;28.72;37.70
34566;BME280;20803;42.676;26.348;2022-09-09T08:53:11;98923.31;;;28.62;36.94
34566;BME280;20803;42.676;26.348;2022-09-09T08:55:48;98930.47;;;29.10;36.93
34566;BME280;20803;42.676;26.348;2022-09-09T08:58:19;98938.94;;;29.51;35.44
34566;BME280;20803;42.676;26.348;2022-09-09T09:09:08;98899.78;;;28.45;35.63
34566;BME280;20803;42.676;26.348;2022-09-09T09:11:38;98899.16;;;28.93;34.17
34566;BME280;20803;42.676;26.348;2022-09-09T09:14:24;98889.50;;;28.61;36.71
34566;BME280;20803;42.676;26.348;2022-09-09T09:19:23;98882.81;;;28.88;34.72
34566;BME280;20803;42.676;26.348;2022-09-09T09:22:04;98886.72;;;28.85;35.04
34566;BME280;20803;42.676;26.348;2022-09-09T09:27:16;98882.84;;;29.13;34.88
34566;BME280;20803;42.676;26.348;2022-09-09T09:29:44;98884.09;;;28.57;34.81
34566;BME280;20803;42.676;26.348;2022-09-09T09:32:17;98878.94;;;28.50;35.09
34566;BME280;20803;42.676;26.348;2022-09-09T09:34:49;98881.31;;;28.82;34.82
34566;BME280;20803;42.676;26.348;2022-09-09T09:37:27;98893.28;;;29.59;33.85
34566;BME280;20803;42.676;26.348;2022-09-09T09:39:54;98883.88;;;29.10;34.97
34566;BME280;20803;42.676;26.348;2022-09-09T09:42:20;98891.31;;;29.48;34.36
34566;BME280;20803;42.676;26.348;2022-09-09T09:44:45;98891.22;;;29.78;33.87
34566;BME280;20803;42.676;26.348;2022-09-09T09:47:17;98878.81;;;29.51;34.12
34566;BME280;20803;42.676;26.348;2022-09-09T09:49:57;98875.06;;;29.08;34.71
34566;BME280;20803;42.676;26.348;2022-09-09T09:52:29;98884.06;;;28.93;35.58
34566;BME280;20803;42.676;26.348;2022-09-09T09:54:56;98877.75;;;29.00;36.07
34566;BME280;20803;42.676;26.348;2022-09-09T09:57:31;98883.53;;;29.67;34.71
34566;BME280;20803;42.676;26.348;2022-09-09T10:00:19;98870.25;;;29.21;35.01
34566;BME280;20803;42.676;26.348;2022-09-09T10:02:46;98872.38;;;28.91;35.53
34566;BME280;20803;42.676;26.348;2022-09-09T10:05:20;98864.53;;;28.97;35.63
34566;BME280;20803;42.676;26.348;2022-09-09T10:07:46;98872.47;;;29.34;35.27
34566;BME280;20803;42.676;26.348;2022-09-09T10:10:25;98872.13;;;28.89;34.55
34566;BME280;20803;42.676;26.348;2022-09-09T10:15:33;98866.97;;;29.36;35.66
34566;BME280;20803;42.676;26.348;2022-09-09T10:26:31;98856.03;;;28.86;36.59
34566;BME280;20803;42.676;26.348;2022-09-09T10:34:58;98842.28;;;30.13;34.14
34566;BME280;20803;42.676;26.348;2022-09-09T10:40:04;98854.28;;;30.49;33.50
34566;BME280;20803;42.676;26.348;2022-09-09T10:42:40;98855.59;;;30.48;32.94
34566;BME280;20803;42.676;26.348;2022-09-09T10:50:42;98844.44;;;29.02;36.10
34566;BME280;20803;42.676;26.348;2022-09-09T10:53:37;98842.31;;;29.33;35.20
34566;BME280;20803;42.676;26.348;2022-09-09T10:56:11;98829.97;;;29.62;34.30
34566;BME280;20803;42.676;26.348;2022-09-09T10:59:04;98833.56;;;29.20;34.91
34566;BME280;20803;42.676;26.348;2022-09-09T11:01:43;98836.03;;;29.34;34.78
34566;BME280;20803;42.676;26.348;2022-09-09T11:04:31;98829.63;;;28.69;35.71
34566;BME280;20803;42.676;26.348;2022-09-09T11:07:00;98821.03;;;29.23;35.60
34566;BME280;20803;42.676;26.348;2022-09-09T11:09:33;98814.94;;;29.56;35.48
34566;BME280;20803;42.676;26.348;2022-09-09T11:12:02;98816.50;;;29.76;35.04
34566;BME280;20803;42.676;26.348;2022-09-09T11:17:24;98811.72;;;29.41;34.51
34566;BME280;20803;42.676;26.348;2022-09-09T11:19:52;98811.28;;;28.88;35.52
34566;BME280;20803;42.676;26.348;2022-09-09T11:22:36;98804.00;;;28.57;35.27
34566;BME280;20803;42.676;26.348;2022-09-09T11:28:00;98798.91;;;29.23;34.86
34566;BME280;20803;42.676;26.348;2022-09-09T11:42:23;98774.66;;;28.81;35.85
34566;BME280;20803;42.676;26.348;2022-09-09T11:44:49;98781.56;;;28.91;34.97
34566;BME280;20803;42.676;26.348;2022-09-09T11:47:28;98780.09;;;28.85;35.14
34566;BME280;20803;42.676;26.348;2022-09-09T11:55:28;98767.63;;;29.68;35.06
34566;BME280;20803;42.676;26.348;2022-09-09T12:00:37;98760.72;;;29.96;34.13
34566;BME280;20803;42.676;26.348;2022-09-09T12:03:04;98758.97;;;30.24;33.88
34566;BME280;20803;42.676;26.348;2022-09-09T12:05:44;98757.19;;;30.21;33.86
34566;BME280;20803;42.676;26.348;2022-09-09T12:08:16;98754.84;;;30.20;33.13
34566;BME280;20803;42.676;26.348;2022-09-09T12:10:56;98745.63;;;29.95;34.63
34566;BME280;20803;42.676;26.348;2022-09-09T12:13:24;98735.06;;;30.03;34.54
34566;BME280;20803;42.676;26.348;2022-09-09T12:18:22;98739.16;;;29.57;33.77
34566;BME280;20803;42.676;26.348;2022-09-09T12:23:50;98731.34;;;29.90;34.44
34566;BME280;20803;42.676;26.348;2022-09-09T12:29:11;98722.88;;;29.65;33.88
34566;BME280;20803;42.676;26.348;2022-09-09T12:37:15;98719.13;;;30.21;34.07
34566;BME280;20803;42.676;26.348;2022-09-09T12:40:20;98710.06;;;30.62;33.56
34566;BME280;20803;42.676;26.348;2022-09-09T12:42:46;98699.81;;;30.53;33.56
34566;BME280;20803;42.676;26.348;2022-09-09T12:48:09;98696.19;;;30.66;33.53
34566;BME280;20803;42.676;26.348;2022-09-09T12:50:46;98685.03;;;30.49;33.15
34566;BME280;20803;42.676;26.348;2022-09-09T12:55:51;98679.25;;;31.02;33.61
34566;BME280;20803;42.676;26.348;2022-09-09T12:58:17;98681.25;;;30.81;33.28
34566;BME280;20803;42.676;26.348;2022-09-09T13:00:51;98673.53;;;30.62;32.86
34566;BME280;20803;42.676;26.348;2022-09-09T13:03:19;98672.09;;;30.95;32.77
34566;BME280;20803;42.676;26.348;2022-09-09T13:05:46;98668.56;;;30.63;33.30
34566;BME280;20803;42.676;26.348;2022-09-09T13:08:13;98668.31;;;31.00;32.90
34566;BME280;20803;42.676;26.348;2022-09-09T13:10:58;98667.78;;;31.15;32.45
34566;BME280;20803;42.676;26.348;2022-09-09T13:13:36;98662.81;;;31.02;32.08
34566;BME280;20803;42.676;26.348;2022-09-09T13:16:05;98661.81;;;30.87;32.26
34566;BME280;20803;42.676;26.348;2022-09-09T13:18:36;98662.41;;;30.72;32.55
34566;BME280;20803;42.676;26.348;2022-09-09T13:21:03;98660.75;;;30.50;33.40
34566;BME280;20803;42.676;26.348;2022-09-09T13:23:31;98659.53;;;30.59;33.38
34566;BME280;20803;42.676;26.348;2022-09-09T13:28:29;98649.16;;;30.56;33.39
34566;BME280;20803;42.676;26.348;2022-09-09T13:31:00;98648.69;;;30.39;33.66
34566;BME280;20803;42.676;26.348;2022-09-09T13:35:57;98647.63;;;30.55;32.74
34566;BME280;20803;42.676;26.348;2022-09-09T13:38:24;98648.13;;;30.40;32.87
34566;BME280;20803;42.676;26.348;2022-09-09T13:41:04;98650.00;;;30.24;33.47
34566;BME280;20803;42.676;26.348;2022-09-09T13:43:38;98643.81;;;30.34;33.21
34566;BME280;20803;42.676;26.348;2022-09-09T13:46:22;98640.63;;;30.24;33.49
34566;BME280;20803;42.676;26.348;2022-09-09T13:49:17;98632.34;;;30.20;33.40
34566;BME280;20803;42.676;26.348;2022-09-09T13:51:45;98632.66;;;30.04;33.72
34566;BME280;20803;42.676;26.348;2022-09-09T13:54:16;98626.41;;;30.18;33.65
34566;BME280;20803;42.676;26.348;2022-09-09T13:56:47;98621.88;;;30.36;33.26
34566;BME280;20803;42.676;26.348;2022-09-09T13:59:19;98632.72;;;30.43;33.38
34566;BME280;20803;42.676;26.348;2022-09-09T14:01:49;98634.91;;;30.37;33.67
34566;BME280;20803;42.676;26.348;2022-09-09T14:04:18;98629.34;;;30.00;34.38
34566;BME280;20803;42.676;26.348;2022-09-09T14:06:47;98616.00;;;30.02;34.34
34566;BME280;20803;42.676;26.348;2022-09-09T14:09:13;98625.28;;;30.21;33.37
34566;BME280;20803;42.676;26.348;2022-09-09T14:11:40;98620.09;;;30.07;33.77
34566;BME280;20803;42.676;26.348;2022-09-09T14:14:06;98619.44;;;30.14;33.15
34566;BME280;20803;42.676;26.348;2022-09-09T14:16:31;98620.44;;;30.30;33.32
34566;BME280;20803;42.676;26.348;2022-09-09T14:18:58;98609.56;;;30.54;33.00
34566;BME280;20803;42.676;26.348;2022-09-09T14:21:25;98602.16;;;30.59;32.86
34566;BME280;20803;42.676;26.348;2022-09-09T14:23:50;98608.44;;;30.71;32.87
34566;BME280;20803;42.676;26.348;2022-09-09T14:26:18;98603.69;;;30.73;32.82
34566;BME280;20803;42.676;26.348;2022-09-09T14:28:44;98602.69;;;30.84;33.54
34566;BME280;20803;42.676;26.348;2022-09-09T14:31:10;98594.06;;;30.44;34.20
34566;BME280;20803;42.676;26.348;2022-09-09T14:33:35;98592.56;;;30.43;34.45
34566;BME280;20803;42.676;26.348;2022-09-09T14:36:02;98588.56;;;30.33;34.44
34566;BME280;20803;42.676;26.348;2022-09-09T14:38:29;98592.31;;;30.28;34.66
34566;BME280;20803;42.676;26.348;2022-09-09T14:40:55;98596.31;;;30.25;34.75
34566;BME280;20803;42.676;26.348;2022-09-09T14:43:21;98589.78;;;30.51;33.71
34566;BME280;20803;42.676;26.348;2022-09-09T14:45:47;98580.09;;;30.67;33.36
34566;BME280;20803;42.676;26.348;2022-09-09T14:48:17;98588.97;;;30.90;32.98
34566;BME280;20803;42.676;26.348;2022-09-09T14:50:42;98581.50;;;30.74;33.23
34566;BME280;20803;42.676;26.348;2022-09-09T14:53:09;98581.56;;;30.94;33.08
34566;BME280;20803;42.676;26.348;2022-09-09T14:55:35;98585.84;;;31.01;32.83
34566;BME280;20803;42.676;26.348;2022-09-09T14:58:01;98578.69;;;30.94;32.61
34566;BME280;20803;42.676;26.348;2022-09-09T15:00:27;98573.19;;;30.83;32.46
34566;BME280;20803;42.676;26.348;2022-09-09T15:02:53;98574.41;;;30.75;32.58
34566;BME280;20803;42.676;26.348;2022-09-09T15:05:19;98567.06;;;30.66;33.23
34566;BME280;20803;42.676;26.348;2022-09-09T15:07:45;98558.78;;;30.62;32.84
34566;BME280;20803;42.676;26.348;2022-09-09T15:10:11;98556.69;;;30.63;33.26
34566;BME280;20803;42.676;26.348;2022-09-09T15:12:36;98561.66;;;30.62;32.89
34566;BME280;20803;42.676;26.348;2022-09-09T15:15:04;98560.13;;;30.35;34.19
34566;BME280;20803;42.676;26.348;2022-09-09T15:17:29;98568.72;;;30.35;34.01
34566;BME280;20803;42.676;26.348;2022-09-09T15:19:55;98567.84;;;30.27;33.33
34566;BME280;20803;42.676;26.348;2022-09-09T15:22:20;98572.56;;;30.11;33.53
34566;BME280;20803;42.676;26.348;2022-09-09T15:24:46;98570.09;;;29.89;34.13
34566;BME280;20803;42.676;26.348;2022-09-09T15:27:12;98574.69;;;29.79;34.52
34566;BME280;20803;42.676;26.348;2022-09-09T15:29:40;98575.81;;;29.89;34.46
34566;BME280;20803;42.676;26.348;2022-09-09T15:32:06;98570.41;;;29.72;34.49